createdAt,value
2019-01-28T00:01:40.342Z,75.61
2019-01-28T00:04:07.384Z,75.48
2019-01-28T00:06:34.628Z,75.30
2019-01-28T00:09:02.579Z,75.07
2019-01-28T00:11:29.636Z,74.91
2019-01-28T00:13:56.755Z,74.82
2019-01-28T00:16:23.797Z,74.52
2019-01-28T00:18:50.841Z,74.21
2019-01-28T00:21:17.895Z,74.02
2019-01-28T00:23:44.919Z,73.94
2019-01-28T00:26:11.960Z,73.91
2019-01-28T00:28:38.999Z,73.92
2019-01-28T00:31:06.063Z,73.92
2019-01-28T00:33:33.089Z,73.86
2019-01-28T00:36:00.131Z,73.91
2019-01-28T00:38:27.182Z,73.83
2019-01-28T00:40:54.238Z,73.61
2019-01-28T00:43:21.325Z,73.47
2019-01-28T00:45:48.370Z,73.41
2019-01-28T00:48:16.673Z,73.34
2019-01-28T00:50:43.890Z,73.27
2019-01-28T00:53:10.957Z,73.34
2019-01-28T00:55:37.985Z,73.34
2019-01-28T00:58:05.060Z,73.38
2019-01-28T01:00:32.194Z,73.36
2019-01-28T01:02:59.234Z,73.46
2019-01-28T01:05:26.284Z,73.32
2019-01-28T01:07:53.342Z,73.09
2019-01-28T01:10:20.399Z,72.79
2019-01-28T01:12:47.457Z,71.65
2019-01-28T01:15:14.678Z,70.73
2019-01-28T01:17:42.134Z,69.96
2019-01-28T01:20:10.817Z,69.58
2019-01-28T01:22:37.890Z,69.38
2019-01-28T01:25:05.049Z,68.98
2019-01-28T01:27:32.078Z,68.93
2019-01-28T01:29:59.136Z,68.89
2019-01-28T01:32:26.210Z,68.95
2019-01-28T01:34:53.270Z,68.92
2019-01-28T01:37:20.319Z,69.13
2019-01-28T01:39:47.353Z,69.13
2019-01-28T01:42:14.403Z,69.00
2019-01-28T01:44:41.439Z,68.71
2019-01-28T01:47:08.509Z,68.21
2019-01-28T01:49:35.547Z,68.36
2019-01-28T01:52:02.601Z,68.26
2019-01-28T01:54:29.633Z,68.48
2019-01-28T01:56:56.690Z,68.49
2019-01-28T01:59:23.728Z,68.19
2019-01-28T02:01:50.805Z,68.00
2019-01-28T02:04:17.861Z,66.83
2019-01-28T02:06:44.930Z,67.24
2019-01-28T02:09:11.967Z,67.69
2019-01-28T02:11:39.013Z,67.96
2019-01-28T02:14:06.052Z,68.23
2019-01-28T02:16:33.093Z,68.29
2019-01-28T02:19:00.131Z,68.09
2019-01-28T02:21:27.167Z,67.34
2019-01-28T02:23:54.237Z,67.40
2019-01-28T02:26:21.292Z,67.33
2019-01-28T02:28:48.349Z,67.45
2019-01-28T02:31:15.391Z,67.49
2019-01-28T02:33:42.416Z,67.45
2019-01-28T02:36:09.435Z,67.57
2019-01-28T02:38:36.471Z,67.72
2019-01-28T02:41:03.617Z,67.58
2019-01-28T02:43:30.672Z,67.76
2019-01-28T02:45:57.728Z,67.34
2019-01-28T02:48:24.769Z,66.74
2019-01-28T02:50:51.839Z,66.82
2019-01-28T02:53:18.897Z,66.25
2019-01-28T02:55:46.056Z,66.14
2019-01-28T02:58:13.100Z,66.37
2019-01-28T03:00:40.153Z,66.51
2019-01-28T03:03:07.180Z,66.77
2019-01-28T03:05:34.214Z,66.88
2019-01-28T03:08:01.247Z,66.57
2019-01-28T03:10:28.276Z,66.92
2019-01-28T03:12:55.321Z,67.07
2019-01-28T03:15:22.455Z,66.87
2019-01-28T03:17:49.518Z,66.78
2019-01-28T03:20:16.891Z,67.24
2019-01-28T03:22:43.948Z,66.92
2019-01-28T03:25:11.464Z,67.12
2019-01-28T03:27:40.375Z,67.33
2019-01-28T03:30:10.316Z,67.45
2019-01-28T03:32:37.551Z,67.58
2019-01-28T03:35:04.850Z,67.70
2019-01-28T03:37:31.858Z,67.69
2019-01-28T03:39:58.885Z,67.53
2019-01-28T03:42:25.934Z,67.40
2019-01-28T03:44:53.016Z,67.69
2019-01-28T03:47:20.071Z,67.75
2019-01-28T03:49:47.111Z,67.84
2019-01-28T03:52:16.278Z,67.66
2019-01-28T03:54:43.310Z,67.82
2019-01-28T03:57:10.337Z,67.91
2019-01-28T03:59:37.377Z,67.98
2019-01-28T04:02:04.426Z,68.08
2019-01-28T04:04:31.456Z,68.09
2019-01-28T04:06:58.509Z,68.24
2019-01-28T04:09:25.538Z,67.96
2019-01-28T04:11:52.598Z,68.19
2019-01-28T04:14:19.631Z,68.10
2019-01-28T04:16:46.680Z,68.08
2019-01-28T04:19:13.726Z,68.31
2019-01-28T04:21:40.777Z,68.46
2019-01-28T04:24:07.823Z,68.53
2019-01-28T04:26:34.849Z,68.57
2019-01-28T04:29:01.910Z,68.45
2019-01-28T04:31:28.960Z,68.44
2019-01-28T04:33:56.012Z,68.29
2019-01-28T04:36:23.075Z,68.28
2019-01-28T04:38:50.099Z,68.32
2019-01-28T04:41:17.131Z,68.24
2019-01-28T04:43:44.215Z,68.21
2019-01-28T04:46:11.279Z,68.29
2019-01-28T04:48:38.381Z,68.23
2019-01-28T04:51:05.433Z,68.20
2019-01-28T04:53:32.468Z,68.12
2019-01-28T04:55:59.516Z,68.15
2019-01-28T04:58:26.577Z,67.95
2019-01-28T05:00:53.605Z,67.79
2019-01-28T05:03:20.645Z,67.74
2019-01-28T05:05:47.695Z,67.63
2019-01-28T05:08:14.751Z,67.58
2019-01-28T05:10:41.820Z,67.55
2019-01-28T05:13:08.877Z,67.46
2019-01-28T05:15:35.925Z,67.50
2019-01-28T05:18:03.091Z,67.59
2019-01-28T05:20:30.168Z,67.76
2019-01-28T05:22:57.201Z,67.77
2019-01-28T05:25:24.237Z,67.73
2019-01-28T05:27:51.271Z,67.81
2019-01-28T05:30:22.464Z,67.71
2019-01-28T05:32:49.458Z,67.75
2019-01-28T05:35:17.066Z,67.87
2019-01-28T05:37:44.117Z,67.84
2019-01-28T05:40:13.766Z,67.85
2019-01-28T05:42:40.806Z,67.66
2019-01-28T05:45:09.174Z,67.64
2019-01-28T05:47:36.214Z,67.63
2019-01-28T05:50:04.638Z,67.66
2019-01-28T05:52:31.671Z,67.60
2019-01-28T05:54:58.724Z,67.45
2019-01-28T05:57:25.773Z,67.64
2019-01-28T05:59:52.836Z,67.69
2019-01-28T06:02:19.892Z,67.68
2019-01-28T06:04:46.927Z,67.54
2019-01-28T06:07:13.983Z,67.37
2019-01-28T06:09:41.024Z,67.40
2019-01-28T06:12:08.081Z,67.40
2019-01-28T06:14:35.231Z,68.17
2019-01-28T06:17:02.278Z,69.23
2019-01-28T06:19:29.327Z,69.02
2019-01-28T06:21:56.354Z,67.11
2019-01-28T06:24:23.952Z,66.32
2019-01-28T06:26:50.989Z,66.95
2019-01-28T06:29:18.084Z,64.71
2019-01-28T06:31:45.121Z,64.59
2019-01-28T06:34:12.210Z,65.17
2019-01-28T06:36:39.238Z,68.67
2019-01-28T06:39:08.793Z,65.08
2019-01-28T06:41:35.824Z,64.01
2019-01-28T06:44:02.999Z,62.35
2019-01-28T06:46:30.066Z,62.47
2019-01-28T06:48:57.107Z,61.91
2019-01-28T06:51:24.218Z,61.90
2019-01-28T06:53:51.262Z,62.54
2019-01-28T06:56:18.345Z,62.83
2019-01-28T06:58:45.403Z,65.49
2019-01-28T07:01:12.473Z,63.77
2019-01-28T07:03:39.549Z,64.02
2019-01-28T07:06:06.615Z,63.46
2019-01-28T07:08:33.666Z,64.20
2019-01-28T07:11:00.726Z,64.50
2019-01-28T07:13:27.785Z,63.03
2019-01-28T07:15:54.819Z,63.72
2019-01-28T07:18:21.873Z,64.03
2019-01-28T07:20:48.912Z,62.61
2019-01-28T07:23:15.975Z,62.46
2019-01-28T07:25:43.057Z,62.74
2019-01-28T07:28:10.116Z,63.10
2019-01-28T07:30:37.184Z,63.09
2019-01-28T07:33:04.456Z,63.13
2019-01-28T07:35:31.536Z,63.31
2019-01-28T07:37:58.604Z,63.50
2019-01-28T07:40:25.655Z,63.69
2019-01-28T07:42:52.691Z,63.35
2019-01-28T07:45:23.200Z,63.45
2019-01-28T07:47:50.252Z,63.18
2019-01-28T07:50:17.290Z,63.31
2019-01-28T07:52:44.352Z,63.03
2019-01-28T07:55:13.249Z,63.20
2019-01-28T07:57:40.472Z,63.20
2019-01-28T08:00:11.251Z,63.34
2019-01-28T08:02:38.306Z,63.29
2019-01-28T08:05:06.874Z,63.22
2019-01-28T08:07:33.927Z,63.24
2019-01-28T08:10:00.982Z,63.65
2019-01-28T08:12:28.055Z,63.67
2019-01-28T08:14:55.120Z,62.91
2019-01-28T08:17:22.160Z,62.19
2019-01-28T08:19:49.247Z,62.42
2019-01-28T08:22:16.302Z,62.15
2019-01-28T08:24:43.378Z,61.87
2019-01-28T08:27:10.412Z,61.81
2019-01-28T08:29:37.492Z,63.87
2019-01-28T08:32:04.564Z,61.63
2019-01-28T08:34:31.647Z,61.16
2019-01-28T08:36:58.710Z,61.20
2019-01-28T08:39:25.783Z,61.14
2019-01-28T08:41:52.842Z,61.02
2019-01-28T08:44:19.901Z,60.89
2019-01-28T08:46:46.945Z,60.80
2019-01-28T08:49:14.002Z,60.95
2019-01-28T08:51:41.067Z,60.82
2019-01-28T08:54:08.182Z,61.09
2019-01-28T08:56:35.240Z,61.06
2019-01-28T08:59:02.304Z,61.22
2019-01-28T09:01:29.361Z,61.09
2019-01-28T09:03:56.433Z,61.31
2019-01-28T09:06:23.501Z,60.93
2019-01-28T09:08:50.583Z,60.89
2019-01-28T09:11:17.665Z,60.89
2019-01-28T09:13:44.745Z,60.58
2019-01-28T09:16:11.812Z,60.26
2019-01-28T09:18:38.908Z,60.03
2019-01-28T09:21:06.009Z,60.03
2019-01-28T09:23:33.057Z,60.29
2019-01-28T09:26:00.114Z,59.24
2019-01-28T09:28:27.168Z,59.78
2019-01-28T09:30:54.245Z,59.63
2019-01-28T09:33:21.303Z,59.81
2019-01-28T09:35:48.370Z,59.66
2019-01-28T09:38:15.433Z,59.73
2019-01-28T09:40:42.491Z,59.50
2019-01-28T09:43:09.559Z,59.50
2019-01-28T09:45:41.038Z,59.22
2019-01-28T09:48:10.070Z,59.31
2019-01-28T09:50:37.139Z,59.12
2019-01-28T09:53:04.306Z,58.86
2019-01-28T09:55:31.355Z,58.49
2019-01-28T09:57:58.395Z,57.89
2019-01-28T10:00:32.085Z,58.44
2019-01-28T10:02:59.160Z,58.24
2019-01-28T10:05:26.248Z,57.63
2019-01-28T10:07:53.318Z,58.17
2019-01-28T10:10:20.503Z,57.27
2019-01-28T10:12:47.556Z,57.58
2019-01-28T10:15:16.208Z,57.19
2019-01-28T10:17:43.260Z,57.21
2019-01-28T10:20:19.308Z,56.21
2019-01-28T10:22:46.369Z,56.69
2019-01-28T10:25:13.647Z,57.09
2019-01-28T10:27:40.717Z,56.62
2019-01-28T10:30:09.044Z,56.63
2019-01-28T10:32:36.434Z,56.32
2019-01-28T10:35:04.031Z,55.14
2019-01-28T10:37:31.104Z,56.12
2019-01-28T10:39:58.171Z,55.92
2019-01-28T10:42:25.257Z,55.72
2019-01-28T10:44:52.330Z,55.68
2019-01-28T10:47:19.382Z,55.44
2019-01-28T10:49:46.458Z,55.63
2019-01-28T10:52:13.508Z,55.53
2019-01-28T10:54:40.582Z,55.84
2019-01-28T10:57:07.638Z,56.08
2019-01-28T10:59:34.708Z,55.23
2019-01-28T11:02:01.809Z,55.23
2019-01-28T11:04:28.858Z,54.58
2019-01-28T11:06:55.916Z,54.51
2019-01-28T11:09:23.002Z,54.54
2019-01-28T11:11:50.146Z,54.98
2019-01-28T11:14:17.334Z,54.47
2019-01-28T11:16:44.501Z,54.19
2019-01-28T11:19:11.700Z,54.57
2019-01-28T11:21:38.747Z,52.78
2019-01-28T11:24:06.119Z,53.64
2019-01-28T11:26:33.155Z,54.36
2019-01-28T11:29:00.266Z,53.66
2019-01-28T11:31:27.376Z,54.34
2019-01-28T11:33:54.447Z,54.70
2019-01-28T11:36:21.493Z,53.84
2019-01-28T11:38:48.761Z,54.11
2019-01-28T11:41:15.895Z,54.00
2019-01-28T11:43:42.923Z,52.93
2019-01-28T11:46:10.133Z,53.21
2019-01-28T11:48:37.263Z,53.56
2019-01-28T11:51:04.503Z,53.36
2019-01-28T11:53:31.555Z,52.79
2019-01-28T11:55:58.635Z,52.37
2019-01-28T11:58:25.699Z,52.88
2019-01-28T12:01:01.242Z,53.16
2019-01-28T12:03:28.725Z,51.73
2019-01-28T12:05:55.816Z,51.11
2019-01-28T12:08:22.862Z,51.28
2019-01-28T12:10:49.959Z,50.43
2019-01-28T12:13:17.015Z,49.64
2019-01-28T12:15:44.089Z,48.67
2019-01-28T12:18:11.130Z,49.24
2019-01-28T12:20:38.205Z,49.55
2019-01-28T12:23:05.351Z,49.47
2019-01-28T12:25:32.421Z,49.10
2019-01-28T12:27:59.471Z,48.36
2019-01-28T12:30:27.212Z,49.74
2019-01-28T12:32:54.279Z,48.55
2019-01-28T12:35:21.453Z,48.76
2019-01-28T12:37:48.535Z,49.22
2019-01-28T12:40:15.716Z,49.28
2019-01-28T12:42:42.770Z,48.66
2019-01-28T12:45:12.557Z,48.44
2019-01-28T12:47:39.587Z,48.94
2019-01-28T12:50:06.980Z,48.25
2019-01-28T12:52:34.046Z,48.06
2019-01-28T12:55:01.095Z,48.33
2019-01-28T12:57:28.144Z,48.06
2019-01-28T12:59:55.296Z,46.48
2019-01-28T13:02:22.340Z,45.88
2019-01-28T13:04:49.406Z,45.73
2019-01-28T13:07:16.444Z,46.67
2019-01-28T13:09:43.542Z,45.92
2019-01-28T13:12:10.602Z,45.82
2019-01-28T13:14:37.654Z,46.85
2019-01-28T13:17:04.757Z,46.03
2019-01-28T13:19:31.792Z,45.92
2019-01-28T13:21:58.857Z,45.25
2019-01-28T13:24:25.926Z,45.29
2019-01-28T13:26:52.988Z,45.71
2019-01-28T13:29:22.526Z,45.58
2019-01-28T13:31:49.556Z,45.97
2019-01-28T13:34:16.605Z,46.39
2019-01-28T13:36:43.667Z,45.69
2019-01-28T13:39:11.066Z,45.75
2019-01-28T13:41:39.871Z,45.69
2019-01-28T13:44:15.689Z,45.62
2019-01-28T13:46:44.760Z,47.24
2019-01-28T13:49:21.839Z,46.92
2019-01-28T13:51:48.896Z,47.56
2019-01-28T13:54:15.973Z,46.82
2019-01-28T13:56:43.046Z,46.82
2019-01-28T13:59:16.084Z,47.37
2019-01-28T14:01:39.325Z,47.73
2019-01-28T14:04:06.435Z,47.51
2019-01-28T14:06:33.491Z,48.83
2019-01-28T14:09:00.568Z,49.21
2019-01-28T14:11:27.689Z,49.19
2019-01-28T14:13:54.759Z,48.73
2019-01-28T14:16:21.839Z,48.95
2019-01-28T14:18:48.953Z,49.20
2019-01-28T14:21:16.030Z,48.38
2019-01-28T14:23:43.107Z,48.22
2019-01-28T14:26:10.157Z,47.82
2019-01-28T14:28:37.300Z,47.51
2019-01-28T14:31:04.373Z,46.65
2019-01-28T14:33:31.428Z,46.63
2019-01-28T14:35:58.487Z,46.15
2019-01-28T14:38:25.570Z,45.52
2019-01-28T14:40:52.654Z,46.14
2019-01-28T14:43:19.732Z,45.98
2019-01-28T14:45:46.805Z,46.57
2019-01-28T14:48:14.082Z,46.03
2019-01-28T14:50:41.382Z,46.36
2019-01-28T14:53:08.440Z,46.62
2019-01-28T14:55:35.617Z,46.76
2019-01-28T14:58:03.240Z,47.21
2019-01-28T15:00:32.708Z,47.22
2019-01-28T15:02:59.820Z,47.56
2019-01-28T15:05:26.919Z,47.63
2019-01-28T15:07:54.205Z,47.97
2019-01-28T15:10:21.291Z,48.68
2019-01-28T15:12:48.357Z,48.47
2019-01-28T15:15:17.619Z,48.70
2019-01-28T15:17:44.711Z,48.20
2019-01-28T15:20:11.886Z,48.26
2019-01-28T15:22:39.057Z,48.67
2019-01-28T15:25:07.026Z,48.00
2019-01-28T15:27:34.129Z,48.52
2019-01-28T15:30:01.185Z,48.64
2019-01-28T15:32:28.255Z,49.15
2019-01-28T15:34:55.302Z,49.31
2019-01-28T15:37:22.416Z,49.36
2019-01-28T15:39:49.540Z,49.53
2019-01-28T15:42:16.624Z,50.13
2019-01-28T15:44:43.714Z,50.33
2019-01-28T15:47:10.814Z,50.01
2019-01-28T15:49:37.931Z,49.75
2019-01-28T15:52:05.044Z,49.61
2019-01-28T15:54:32.116Z,49.49
2019-01-28T15:56:59.184Z,49.68
2019-01-28T15:59:26.263Z,49.27
2019-01-28T16:01:56.222Z,50.22
2019-01-28T16:04:23.300Z,49.89
2019-01-28T16:06:50.896Z,50.80
2019-01-28T16:09:18.022Z,50.79
2019-01-28T16:11:45.142Z,51.17
2019-01-28T16:14:12.354Z,50.22
2019-01-28T16:16:41.821Z,50.36
2019-01-28T16:19:09.373Z,51.40
2019-01-28T16:21:36.854Z,51.21
2019-01-28T16:24:04.185Z,53.47
2019-01-28T16:26:31.344Z,50.40
2019-01-28T16:28:58.467Z,50.72
2019-01-28T16:31:25.609Z,50.42
2019-01-28T16:33:53.386Z,50.69
2019-01-28T16:39:08.243Z,51.60
2019-01-28T16:41:35.353Z,51.41
2019-01-28T16:44:07.315Z,51.55
2019-01-28T16:46:34.779Z,52.05
2019-01-28T16:49:01.953Z,52.79
2019-01-28T16:51:29.160Z,53.29
2019-01-28T16:53:57.579Z,52.99
2019-01-28T16:56:24.719Z,52.91
2019-01-28T16:58:55.847Z,52.96
2019-01-28T17:01:23.245Z,53.09
2019-01-28T17:03:50.851Z,53.45
2019-01-28T17:06:18.255Z,53.45
2019-01-28T17:08:46.221Z,54.09
2019-01-28T17:11:13.423Z,54.17
2019-01-28T17:13:41.717Z,54.37
2019-01-28T17:16:08.801Z,54.61
2019-01-28T17:18:36.832Z,54.53
2019-01-28T17:21:03.974Z,54.64
2019-01-28T17:23:31.206Z,54.83
2019-01-28T17:26:00.429Z,54.72
2019-01-28T17:28:30.741Z,54.78
2019-01-28T17:30:57.960Z,55.20
2019-01-28T17:33:25.094Z,55.57
2019-01-28T17:35:52.245Z,55.74
2019-01-28T17:38:19.371Z,55.93
2019-01-28T17:40:46.613Z,55.86
2019-01-28T17:43:15.575Z,55.87
2019-01-28T17:45:42.922Z,56.07
2019-01-28T17:48:10.421Z,55.74
2019-01-28T17:50:43.436Z,55.59
2019-01-28T17:53:08.723Z,55.35
2019-01-28T17:55:37.225Z,55.74
2019-01-28T17:58:05.853Z,55.92
2019-01-28T18:00:39.753Z,56.23
2019-01-28T18:03:07.125Z,56.65
2019-01-28T18:08:35.809Z,57.63
2019-01-28T18:11:03.004Z,58.60
2019-01-28T18:13:30.122Z,59.63
2019-01-28T18:15:57.336Z,60.51
2019-01-28T18:18:24.494Z,61.53
2019-01-28T18:20:52.253Z,62.40
2019-01-28T18:23:46.285Z,63.55
2019-01-28T18:26:13.500Z,63.54
2019-01-28T18:28:40.783Z,63.38
2019-01-28T18:31:08.032Z,62.91
2019-01-28T18:33:35.233Z,62.67
2019-01-28T18:36:05.742Z,63.60
2019-01-28T18:38:38.947Z,64.30
2019-01-28T18:41:06.536Z,64.95
2019-01-28T18:43:53.324Z,65.71
2019-01-28T18:46:22.910Z,66.26
2019-01-28T18:48:50.205Z,66.67
2019-01-28T18:54:05.383Z,67.51
2019-01-28T18:56:52.440Z,68.27
2019-01-28T18:59:19.768Z,69.01
2019-01-28T19:01:47.114Z,69.98
2019-01-28T19:04:14.315Z,70.58
2019-01-28T19:07:02.626Z,70.86
2019-01-28T19:09:49.559Z,71.19
2019-01-28T19:12:36.430Z,71.89
2019-01-28T19:15:14.925Z,71.99
2019-01-28T19:18:01.788Z,72.41
2019-01-28T19:20:48.725Z,72.60
2019-01-28T19:23:16.129Z,72.69
2019-01-28T19:25:43.527Z,73.19
2019-01-28T19:30:57.748Z,73.47
2019-01-28T19:33:27.894Z,73.52
2019-01-28T19:35:55.670Z,73.67
2019-01-28T19:38:22.964Z,73.87
2019-01-28T19:40:54.296Z,74.15
2019-01-28T19:43:26.190Z,74.18
2019-01-28T19:45:56.066Z,74.39
2019-01-28T19:48:23.871Z,74.38
2019-01-28T19:50:51.735Z,74.50
2019-01-28T19:53:19.024Z,74.56
2019-01-28T19:55:47.500Z,74.60
2019-01-28T19:58:16.187Z,75.02
2019-01-28T20:00:44.780Z,75.08
2019-01-28T20:03:14.385Z,75.27
2019-01-28T20:05:44.099Z,75.25
2019-01-28T20:08:11.851Z,75.35
2019-01-28T20:10:43.108Z,75.50
2019-01-28T20:13:18.738Z,75.64
2019-01-28T20:15:47.194Z,75.64
2019-01-28T20:18:15.163Z,75.73
2019-01-28T20:20:43.904Z,75.85
2019-01-28T20:23:12.340Z,75.78
2019-01-28T20:25:44.184Z,75.73
2019-01-28T20:28:16.846Z,75.87
2019-01-28T20:30:44.394Z,76.04
2019-01-28T20:33:33.874Z,76.11
2019-01-28T20:36:01.371Z,76.13
2019-01-28T20:38:29.278Z,76.18
2019-01-28T20:41:00.282Z,76.23
2019-01-28T20:43:27.734Z,76.22
2019-01-28T20:45:55.889Z,76.32
2019-01-28T20:48:25.531Z,76.40
2019-01-28T20:50:53.207Z,76.60
2019-01-28T20:53:21.215Z,76.22
2019-01-28T20:55:50.145Z,76.13
2019-01-28T20:58:17.676Z,76.16
2019-01-28T21:00:46.264Z,76.20
2019-01-28T21:03:13.833Z,76.17
2019-01-28T21:05:42.063Z,76.14
2019-01-28T21:08:09.549Z,76.11
2019-01-28T21:10:36.816Z,76.10
2019-01-28T21:13:44.887Z,76.04
2019-01-28T21:16:12.194Z,75.90
2019-01-28T21:18:39.688Z,75.76
2019-01-28T21:21:07.199Z,75.74
2019-01-28T21:26:14.752Z,75.49
2019-01-28T21:28:42.152Z,75.34
2019-01-28T21:31:09.316Z,75.23
2019-01-28T21:33:36.496Z,75.03
2019-01-28T21:36:31.988Z,74.98
2019-01-28T21:38:59.112Z,74.81
2019-01-28T21:41:26.252Z,74.89
2019-01-28T21:43:53.383Z,74.75
2019-01-28T21:46:20.983Z,74.70
2019-01-28T21:48:48.378Z,74.61
2019-01-28T21:51:15.538Z,74.41
2019-01-28T21:53:42.666Z,74.24
2019-01-28T21:56:09.791Z,74.02
2019-01-28T21:58:36.984Z,73.97
2019-01-28T22:01:04.303Z,73.96
2019-01-28T22:03:31.385Z,73.94
2019-01-28T22:05:58.482Z,73.83
2019-01-28T22:08:25.585Z,73.69
2019-01-28T22:10:52.654Z,73.71
2019-01-28T22:13:19.795Z,73.68
2019-01-28T22:15:46.935Z,73.78
2019-01-28T22:18:14.019Z,73.87
2019-01-28T22:20:41.073Z,74.05
2019-01-28T22:23:08.181Z,74.17
2019-01-28T22:25:35.229Z,74.30
2019-01-28T22:28:02.396Z,74.56
2019-01-28T22:30:29.439Z,74.72
2019-01-28T22:32:56.507Z,74.79
2019-01-28T22:35:23.578Z,75.03
2019-01-28T22:37:50.662Z,75.38
2019-01-28T22:40:17.717Z,75.59
2019-01-28T22:42:44.802Z,75.63
2019-01-28T22:45:13.587Z,75.67
2019-01-28T22:47:40.655Z,75.67
2019-01-28T22:50:10.111Z,75.75
2019-01-28T22:52:37.330Z,75.61
2019-01-28T22:55:05.088Z,75.58
2019-01-28T22:57:32.130Z,75.64
2019-01-28T22:59:59.216Z,75.71
2019-01-28T23:02:26.295Z,75.79
2019-01-28T23:04:53.318Z,75.85
2019-01-28T23:07:20.375Z,75.96
2019-01-28T23:09:47.439Z,75.95
2019-01-28T23:12:14.778Z,76.07
2019-01-28T23:14:41.842Z,76.25
2019-01-28T23:17:08.890Z,76.27
2019-01-28T23:19:35.947Z,76.32
2019-01-28T23:22:02.989Z,76.27
2019-01-28T23:24:30.058Z,76.34
2019-01-28T23:26:57.158Z,76.25
2019-01-28T23:29:24.240Z,76.30
2019-01-28T23:31:51.347Z,76.29
2019-01-28T23:34:18.404Z,76.20
2019-01-28T23:36:45.489Z,76.25
2019-01-28T23:39:12.558Z,76.44
2019-01-28T23:41:39.618Z,76.45
2019-01-28T23:44:06.674Z,76.54
2019-01-28T23:46:33.789Z,76.46
2019-01-28T23:49:00.858Z,76.63
2019-01-28T23:51:27.902Z,76.69
2019-01-28T23:53:54.949Z,76.77
2019-01-28T23:56:21.982Z,76.75
2019-01-28T23:58:49.023Z,76.73
